Time,TemperatureF,DewpointF,PressureIn,WindDirection,WindDirectionDegrees,WindSpeedMPH,WindSpeedGustMPH,Humidity,HourlyPrecipIn,Conditions,Clouds,dailyrainin,SoftwareType,DateUTC
2013-05-29 00:01:00,69.3,50.9,29.68,SSE,157,4.0,4.0,52,0.00,CLR,,0.00,WeatherDisplay:10.37,2013-05-29 04:01:00,
2013-05-29 00:06:00,69.3,50.9,29.68,SSE,157,4.0,4.0,52,0.00,CLR,,0.00,WeatherDisplay:10.37,2013-05-29 04:06:00,
2013-05-29 00:11:00,69.3,50.4,29.68,SSE,157,4.0,4.0,51,0.00,CLR,,0.00,WeatherDisplay:10.37,2013-05-29 04:11:00,
2013-05-29 00:16:00,67.1,48.4,29.70,SSE,157,3.6,3.6,51,0.00,CLR,,0.00,WeatherDisplay:10.37,2013-05-29 04:16:00,
2013-05-29 00:21:00,67.1,48.4,29.69,SSE,157,3.6,3.6,51,0.00,CLR,,0.00,WeatherDisplay:10.37,2013-05-29 04:21:00,
2013-05-29 00:26:00,67.1,48.4,29.70,SSE,157,3.6,3.6,51,0.00,CLR,,0.00,WeatherDisplay:10.37,2013-05-29 04:26:00,
2013-05-29 00:31:00,67.1,48.9,29.69,SSE,157,3.6,3.6,52,0.00,CLR,,0.00,WeatherDisplay:10.37,2013-05-29 04:31:00,
2013-05-29 00:36:00,67.1,48.9,29.67,SSE,157,3.6,3.6,52,0.00,CLR,,0.00,WeatherDisplay:10.37,2013-05-29 04:36:00,
2013-05-29 14:29:00,81.5,60.5,29.86,NNW,337,6.1,6.1,49,0.00,CLR,,0.00,WeatherDisplay:10.37,2013-05-29 18:29:00,
2013-05-29 14:34:00,82.0,61.0,29.85,SW,225,4.6,4.6,49,0.00,CLR,,0.00,WeatherDisplay:10.37,2013-05-29 18:34:00,
2013-05-29 14:39:00,83.7,62.5,29.86,SW,225,4.6,4.6,49,0.00,CLR,,0.00,WeatherDisplay:10.37,2013-05-29 18:39:00,
2013-05-29 14:45:00,84.2,63.0,29.86,North,0,4.6,0.0,49,0.00,CLR,,0.00,WeatherDisplay:10.37,2013-05-29 18:45:00,
2013-05-29 14:50:00,84.9,63.6,29.85,NW,315,4.6,4.6,49,0.00,CLR,,0.00,WeatherDisplay:10.37,2013-05-29 18:50:00,
2013-05-29 14:55:00,83.5,62.3,29.85,NW,315,4.6,4.6,49,0.00,CLR,,0.00,WeatherDisplay:10.37,2013-05-29 18:55:00,
2013-05-29 15:00:00,82.6,61.5,29.86,NNW,337,4.6,4.6,49,0.00,CLR,,0.00,WeatherDisplay:10.37,2013-05-29 19:00:00,
2013-05-29 15:05:00,81.9,60.8,29.86,WSW,247,4.6,4.6,49,0.00,CLR,,0.00,WeatherDisplay:10.37,2013-05-29 19:05:00,
2013-05-29 15:10:00,81.9,60.8,29.86,NW,315,4.6,4.6,49,0.00,CLR,,0.00,WeatherDisplay:10.37,2013-05-29 19:10:00,
2013-05-29 15:15:00,84.3,63.0,29.86,North,0,3.5,0.0,49,0.00,CLR,,0.00,WeatherDisplay:10.37,2013-05-29 19:15:00,
2013-05-29 15:20:00,84.6,63.3,29.86,West,270,3.6,3.6,49,0.00,CLR,,0.00,WeatherDisplay:10.37,2013-05-29 19:20:00,
2013-05-29 15:25:00,84.4,63.1,29.85,West,270,3.6,3.6,49,0.00,CLR,,0.00,WeatherDisplay:10.37,2013-05-29 19:25:00,
2013-05-29 15:30:00,82.8,61.6,29.85,WNW,292,3.6,3.6,49,0.00,CLR,,0.00,WeatherDisplay:10.37,2013-05-29 19:30:00,
2013-05-29 15:35:00,82.0,61.0,29.85,West,270,3.6,3.6,49,0.00,CLR,,0.00,WeatherDisplay:10.37,2013-05-29 19:35:00,
2013-05-29 15:40:00,82.4,61.3,29.85,NNW,337,3.6,3.6,49,0.00,CLR,,0.00,WeatherDisplay:10.37,2013-05-29 19:40:00,
2013-05-29 15:45:00,84.0,62.8,29.84,South,180,3.6,3.6,49,0.00,CLR,,0.00,WeatherDisplay:10.37,2013-05-29 19:45:00,
2013-05-29 22:34:00,70.3,53.4,29.86,North,0,0.0,0.0,55,0.00,CLR,,0.00,WeatherDisplay:10.37,2013-05-30 02:34:00,
2013-05-29 22:39:00,70.2,53.2,29.86,South,180,0.0,0.0,55,0.00,CLR,,0.00,WeatherDisplay:10.37,2013-05-30 02:39:00,
2013-05-29 22:44:00,70.2,53.2,29.86,South,180,0.0,0.0,55,0.00,CLR,,0.00,WeatherDisplay:10.37,2013-05-30 02:44:00,
2013-05-29 22:49:00,70.0,53.1,29.86,SSE,157,0.3,0.0,55,0.00,CLR,,0.00,WeatherDisplay:10.37,2013-05-30 02:49:00,
2013-05-29 22:54:00,70.0,53.1,29.86,SSE,157,0.3,0.0,55,0.00,CLR,,0.00,WeatherDisplay:10.37,2013-05-30 02:54:00,
2013-05-29 22:59:00,69.8,52.9,29.87,SSE,157,0.3,0.0,55,0.00,CLR,,0.00,WeatherDisplay:10.37,2013-05-30 02:59:00,
2013-05-29 23:05:00,69.6,52.7,29.86,SSE,157,0.3,0.0,55,0.00,CLR,,0.00,WeatherDisplay:10.37,2013-05-30 03:05:00,
2013-05-29 23:10:00,69.6,52.7,29.87,SW,225,0.0,0.0,55,0.00,CLR,,0.00,WeatherDisplay:10.37,2013-05-30 03:10:00,
2013-05-29 23:15:00,69.1,52.2,29.87,South,180,0.0,0.0,55,0.00,CLR,,0.00,WeatherDisplay:10.37,2013-05-30 03:15:00,
2013-05-29 23:20:00,68.9,52.1,29.87,South,180,0.0,0.0,55,0.00,CLR,,0.00,WeatherDisplay:10.37,2013-05-30 03:20:00,
2013-05-29 23:25:00,68.9,52.1,29.87,South,180,0.0,0.0,55,0.00,CLR,,0.00,WeatherDisplay:10.37,2013-05-30 03:25:00,
2013-05-29 23:30:00,68.7,51.9,29.87,South,180,0.0,0.0,55,0.00,CLR,,0.00,WeatherDisplay:10.37,2013-05-30 03:30:00,
2013-05-29 23:35:00,68.5,51.7,29.87,SSE,157,0.0,0.0,55,0.00,CLR,,0.00,WeatherDisplay:10.37,2013-05-30 03:35:00,
2013-05-29 23:40:00,68.5,51.7,29.87,SE,135,0.0,0.0,55,0.00,CLR,,0.00,WeatherDisplay:10.37,2013-05-30 03:40:00,
2013-05-29 23:45:00,68.4,51.6,29.86,SE,135,0.0,0.0,55,0.00,CLR,,0.00,WeatherDisplay:10.37,2013-05-30 03:45:00,
2013-05-29 23:50:00,68.0,51.2,29.86,SE,135,0.0,0.0,55,0.00,CLR,,0.00,WeatherDisplay:10.37,2013-05-30 03:50:00,
2013-05-29 23:55:00,67.6,50.9,29.86,East,90,0.0,0.0,55,0.00,CLR,,0.00,WeatherDisplay:10.37,2013-05-30 03:55:00,